LFBTEGPC

Guest
Details From LFBT - Tarbes Ossun Lourdes
To EGPC - Wick
Flight Number -
Tags Generated
Created
Modified
Stats Distance 926 nm / 1,715 km
Max Altitude 0 ft / 0 m
Waypoints 6
Social Downloads 3
Likes 0
Share VATSIM

Download

Looking for another format? Having issues loading an existing format? Contact us
Advertisement - Login to hide

Notes

Generated

Route

LFBT ENOBU SAM05 DOLOP WIK10 EGPC

ID Type Via Altitude (ft/m) Position (lat/lon) Dist (leg/tot) Name
O LFBT APT - 0 / 0 43.16599 / -0.01275 - / 0 nm
ENOBU FIX - 0 / 0 47.18519 / -0.67156 242 / 242 nm
SAM05 FIX - 0 / 0 51.03334 / -1.31144 232 / 475 nm
DOLOP FIX - 0 / 0 54.56250 / -1.99583 213 / 688 nm
WIK10 FIX - 0 / 0 58.30417 / -2.98472 227 / 915 nm
O EGPC APT - 0 / 0 58.45582 / -3.10161 9 / 925 nm

Altitude Profile

Advertisement - Login to hide

Weather


0- 5 10 15 20 25 30 35+ Temperature / °C

Clouds and Precipitation
Forecast for 2018-12-18 12:00 UTC. Updated 5 hours ago

Ground ~20,000 ft ~40,000 ft Winds

LFBT

Details ICAO LFBT (LDE)
Name Tarbes Ossun Lourdes
Region France
Timezone Europe/Paris (UTC+1.0)
Stats Elevation 1,260 ft / 384 m (AMSL)
Location 43.178600° -0.006342°
Runways 1
Magnetic Variation 0.341° E

METAR

LFBT 181430Z AUTO 36004KT CAVOK 09/06 Q1014 NOSIG

Decode

TAF

TAF LFBT 181100Z 1812/1912 VRB02KT CAVOK PROB40 TEMPO 1821/1902 4000 -RA SCT025 BKN050 PROB30 1902/1909 4000 MIFG TEMPO 1911/1912 FEW040TCU

Decode

Departure Runways

ID Width Length Bearing (true/mag) Surface Threshold Overrun Markings Lighting
02 148 ft / 45 m 9,847 ft / 3,001 m 20.26° / 19.92° ASPHALT 2,199 ft / 670 m 0 ft / 0 m PREC-APP EDGE THRESHOLD
20 148 ft / 45 m 9,847 ft / 3,001 m 200.27° / 199.93° ASPHALT 0 ft / 0 m 0 ft / 0 m PREC-APP EDGE THRESHOLD ALSF-I REIL-OMNI

EGPC

Details ICAO EGPC (WIC)
Name Wick
Region United Kingdom
Timezone Europe/London (UTC+0.0)
Stats Elevation 125 ft / 38 m (AMSL)
Location 58.458800° -3.092960°
Runways 1
Magnetic Variation 2.443° W

METAR

EGPC 181420Z 17021G31KT 9000 BKN021 09/07 Q0991

Decode

TAF

Not found

Destination Runways

ID Width Length Bearing (true/mag) Surface Threshold Overrun Markings Lighting
13 148 ft / 45 m 5,992 ft / 1,826 m 127.02° / 129.46° ASPHALT 814 ft / 248 m 0 ft / 0 m UK-APP EDGE THRESHOLD MALS REIL-UNI
31 148 ft / 45 m 5,992 ft / 1,826 m 307.04° / 309.48° ASPHALT 1,010 ft / 308 m 0 ft / 0 m UK-APP EDGE THRESHOLD MALS REIL-UNI